Time;durP1;ratioP1;P1;durP2;ratioP2;P2;SDS_P1;SDS_P2;PMS_P1;PMS_P2;Temp;Humidity;BMP_temperature;BMP_pressure;BME280_temperature;BME280_humidity;BME280_pressure;Samples;Min_cycle;Max_cycle;Signal;HPM_P1;HPM_P2
2023/11/30 00:02:09;;;;;;;;;;;-0.70;99.90;;;;;;5074998;28;19905;-76
2023/11/30 00:04:34;;;;;;;;;;;-0.80;99.90;;;;;;5073061;28;19912;-75
2023/11/30 00:07:00;;;;;;;;;;;-0.80;99.90;;;;;;5071010;28;19911;-76
2023/11/30 00:09:25;;;;;;;;;;;-0.80;99.90;;;;;;5072651;28;20401;-74
2023/11/30 00:11:51;;;;;;;;;;;-0.80;99.90;;;;;;5072051;28;19904;-75
2023/11/30 00:14:16;;;;;;;;;;;-0.80;99.90;;;;;;5073277;28;19917;-75
2023/11/30 00:16:42;;;;;;;;;;;-0.70;99.90;;;;;;5070923;28;19905;-75
2023/11/30 00:19:07;;;;;;;;;;;-0.70;99.90;;;;;;5072847;28;20288;-76
2023/11/30 00:21:33;;;;;;;;;;;-0.60;99.90;;;;;;5071757;28;19908;-75
2023/11/30 00:23:58;;;;;;;;;;;-0.70;99.90;;;;;;5071898;28;20388;-74
2023/11/30 00:26:24;;;;;;;;;;;-0.50;99.90;;;;;;5072975;28;19908;-75
2023/11/30 00:28:49;;;;;;;;;;;-0.60;99.90;;;;;;5066282;28;19991;-75
2023/11/30 00:31:15;;;;;;;;;;;-0.60;99.90;;;;;;5071597;28;20319;-75
2023/11/30 00:33:40;;;;;;;;;;;-0.60;99.90;;;;;;5071272;28;20002;-75
2023/11/30 00:36:07;;;;;;;;;;;-0.60;99.90;;;;;;5072690;28;19996;-75
2023/11/30 00:38:32;;;;;;;;;;;-0.60;99.90;;;;;;5070599;28;19908;-75
2023/11/30 00:40:58;;;;;;;;;;;-0.70;99.90;;;;;;5072074;28;20651;-75
2023/11/30 00:43:23;;;;;;;;;;;-0.70;99.90;;;;;;5072505;28;19916;-75
2023/11/30 00:45:49;;;;;;;;;;;-0.90;99.90;;;;;;5071457;28;19943;-75
2023/11/30 00:48:14;;;;;;;;;;;-0.80;99.90;;;;;;5071157;28;19966;-76
2023/11/30 00:50:40;;;;;;;;;;;-0.90;99.90;;;;;;5071214;28;19904;-75
2023/11/30 00:53:05;;;;;;;;;;;-1.00;99.90;;;;;;5071169;28;19908;-75
2023/11/30 00:55:30;;;;;;;;;;;-0.70;99.90;;;;;;5072354;28;19908;-75
2023/11/30 00:57:56;;;;;;;;;;;-0.50;99.90;;;;;;5072234;28;19912;-75
2023/11/30 01:00:21;;;;;;;;;;;-0.50;99.90;;;;;;5071045;28;19984;-76
2023/11/30 01:02:47;;;;;;;;;;;-0.50;99.90;;;;;;5071207;28;20357;-76
2023/11/30 01:05:12;;;;;;;;;;;-0.50;99.90;;;;;;5072429;28;19913;-75
2023/11/30 01:07:38;;;;;;;;;;;-0.50;99.90;;;;;;5072266;28;19908;-75
2023/11/30 01:10:04;;;;;;;;;;;-0.50;99.90;;;;;;5072950;28;19912;-76
2023/11/30 01:12:30;;;;;;;;;;;-0.40;99.90;;;;;;5071694;28;20296;-76
2023/11/30 01:14:55;;;;;;;;;;;-0.40;99.90;;;;;;5073117;28;19947;-75
2023/11/30 01:17:21;;;;;;;;;;;-0.50;99.90;;;;;;5071257;28;20381;-76
2023/11/30 01:19:46;;;;;;;;;;;-0.60;99.90;;;;;;5073061;28;19908;-75
2023/11/30 01:22:12;;;;;;;;;;;-0.50;99.90;;;;;;5072293;28;20020;-76
2023/11/30 01:24:37;;;;;;;;;;;-0.40;99.90;;;;;;5070804;28;19904;-76
2023/11/30 01:27:03;;;;;;;;;;;-0.40;99.90;;;;;;5071534;28;19905;-75
2023/11/30 01:29:29;;;;;;;;;;;-0.50;99.90;;;;;;5070618;28;20297;-76
2023/11/30 01:31:54;;;;;;;;;;;-0.60;99.90;;;;;;5071238;28;19911;-77
2023/11/30 01:34:20;;;;;;;;;;;-0.70;99.90;;;;;;5072106;28;19904;-76
2023/11/30 01:36:45;;;;;;;;;;;-0.50;99.90;;;;;;5071329;28;19934;-75
2023/11/30 01:39:13;;;;;;;;;;;-0.60;99.90;;;;;;5072234;28;19904;-76
2023/11/30 01:41:39;;;;;;;;;;;-0.50;99.90;;;;;;5072001;28;19908;-75
2023/11/30 01:44:05;;;;;;;;;;;-0.50;99.90;;;;;;5070951;28;20566;-75
2023/11/30 01:46:31;;;;;;;;;;;-0.50;99.90;;;;;;5072034;28;19912;-75
2023/11/30 01:48:57;;;;;;;;;;;-0.60;99.90;;;;;;5070432;28;19912;-74
2023/11/30 01:51:24;;;;;;;;;;;-0.50;99.90;;;;;;5069701;28;19904;-75
2023/11/30 01:53:51;;;;;;;;;;;-0.60;99.90;;;;;;5070697;28;19908;-74
2023/11/30 01:56:16;;;;;;;;;;;-0.60;99.90;;;;;;5070670;28;20117;-75
2023/11/30 01:58:42;;;;;;;;;;;-0.60;99.90;;;;;;5070907;28;20446;-76
2023/11/30 02:01:08;;;;;;;;;;;-0.50;99.90;;;;;;5069200;28;20368;-75
2023/11/30 02:03:34;;;;;;;;;;;-0.60;99.90;;;;;;5071608;28;19908;-75
2023/11/30 02:05:59;;;;;;;;;;;-0.50;99.90;;;;;;5071453;28;20317;-76
2023/11/30 02:08:25;;;;;;;;;;;-0.60;99.90;;;;;;5070946;28;20300;-76
2023/11/30 02:10:50;;;;;;;;;;;-0.60;99.90;;;;;;5070728;28;20008;-76
2023/11/30 02:13:16;;;;;;;;;;;-0.60;99.90;;;;;;5072278;28;20006;-76
2023/11/30 02:15:41;;;;;;;;;;;-0.60;99.90;;;;;;5072590;28;19904;-76
2023/11/30 02:18:07;;;;;;;;;;;-0.70;99.90;;;;;;5069981;28;19973;-76
2023/11/30 02:20:32;;;;;;;;;;;-0.70;99.90;;;;;;5071173;28;20598;-75
2023/11/30 02:22:58;;;;;;;;;;;-0.80;99.90;;;;;;5071148;28;19908;-74
2023/11/30 02:25:23;;;;;;;;;;;-0.80;99.90;;;;;;5072073;28;19908;-76
2023/11/30 02:27:49;;;;;;;;;;;-0.80;99.90;;;;;;5071719;28;20037;-75
2023/11/30 02:30:14;;;;;;;;;;;-0.80;99.90;;;;;;5072139;28;19916;-74
2023/11/30 02:32:40;;;;;;;;;;;-0.80;99.90;;;;;;5072085;28;19943;-75
2023/11/30 02:35:06;;;;;;;;;;;-0.80;99.90;;;;;;5070595;28;20018;-76
2023/11/30 02:37:31;;;;;;;;;;;-0.80;99.90;;;;;;5069160;28;19958;-76
2023/11/30 02:39:57;;;;;;;;;;;-0.80;99.90;;;;;;5070628;28;19922;-75
2023/11/30 02:42:22;;;;;;;;;;;-0.80;99.90;;;;;;5070444;28;19909;-75
2023/11/30 02:44:48;;;;;;;;;;;-0.90;99.90;;;;;;5070769;28;20335;-75
2023/11/30 02:47:13;;;;;;;;;;;-0.90;99.90;;;;;;5068735;28;20265;-75
2023/11/30 02:49:39;;;;;;;;;;;-0.90;99.90;;;;;;5070276;28;20412;-75
2023/11/30 02:52:04;;;;;;;;;;;-0.90;99.90;;;;;;5070039;28;20007;-75
2023/11/30 02:54:30;;;;;;;;;;;-0.90;99.90;;;;;;5068649;28;20272;-76
2023/11/30 02:56:55;;;;;;;;;;;-0.90;99.90;;;;;;5068889;28;19904;-75
2023/11/30 02:59:22;;;;;;;;;;;-0.90;99.90;;;;;;5070234;28;20587;-75
2023/11/30 03:01:48;;;;;;;;;;;-0.90;99.90;;;;;;5070001;28;20296;-75
2023/11/30 03:04:14;;;;;;;;;;;-0.80;99.90;;;;;;5070219;28;20377;-76
2023/11/30 03:06:40;;;;;;;;;;;-1.00;99.90;;;;;;5068443;28;19950;-75
2023/11/30 03:09:05;;;;;;;;;;;-1.00;99.90;;;;;;5068672;28;19917;-75
2023/11/30 03:11:31;;;;;;;;;;;-1.10;99.90;;;;;;5069570;28;19995;-76
2023/11/30 03:13:57;;;;;;;;;;;-1.10;99.90;;;;;;5074157;28;20381;-75
2023/11/30 03:16:23;;;;;;;;;;;-1.00;99.90;;;;;;5074300;28;19904;-75
2023/11/30 03:18:49;;;;;;;;;;;-1.00;99.90;;;;;;5072843;28;19905;-75
2023/11/30 03:21:18;;;;;;;;;;;-1.00;99.90;;;;;;5072686;28;19908;-75
2023/11/30 03:23:44;;;;;;;;;;;-1.00;99.90;;;;;;5073809;28;19905;-75
2023/11/30 03:26:09;;;;;;;;;;;-1.00;99.90;;;;;;5073917;28;19962;-75
2023/11/30 03:28:35;;;;;;;;;;;-1.00;99.90;;;;;;5074073;28;20285;-74
2023/11/30 03:31:00;;;;;;;;;;;-1.10;99.90;;;;;;5072888;28;19909;-74
2023/11/30 03:33:26;;;;;;;;;;;-1.10;99.90;;;;;;5074122;28;19915;-75
2023/11/30 03:35:51;;;;;;;;;;;-1.20;99.90;;;;;;5074083;28;19904;-75
2023/11/30 03:38:20;;;;;;;;;;;-1.30;99.90;;;;;;5072767;28;19912;-75
2023/11/30 03:40:46;;;;;;;;;;;-1.20;99.90;;;;;;5071679;28;20265;-75
2023/11/30 03:43:11;;;;;;;;;;;-1.20;99.90;;;;;;5072150;28;19935;-75
2023/11/30 03:45:37;;;;;;;;;;;-1.10;99.90;;;;;;5072798;28;19908;-74
2023/11/30 03:48:02;;;;;;;;;;;-1.10;99.90;;;;;;5073893;28;19991;-75
2023/11/30 03:50:28;;;;;;;;;;;-1.20;99.90;;;;;;5072777;28;19916;-75
2023/11/30 03:52:53;;;;;;;;;;;-1.20;99.90;;;;;;5072320;28;19908;-75
2023/11/30 03:55:19;;;;;;;;;;;-1.20;99.90;;;;;;5072829;28;19908;-75
2023/11/30 03:57:45;;;;;;;;;;;-1.10;99.90;;;;;;5074142;28;19905;-76
2023/11/30 04:00:13;;;;;;;;;;;-1.10;99.90;;;;;;5072771;28;19931;-75
2023/11/30 04:02:39;;;;;;;;;;;-1.10;99.90;;;;;;5074200;28;19912;-74
2023/11/30 04:05:05;;;;;;;;;;;-0.90;99.90;;;;;;5072572;28;20428;-75
2023/11/30 04:07:31;;;;;;;;;;;-0.90;99.90;;;;;;5073368;28;19959;-75
2023/11/30 04:09:57;;;;;;;;;;;-1.00;99.90;;;;;;5074976;28;19952;-75
2023/11/30 04:12:23;;;;;;;;;;;-0.90;99.90;;;;;;5073496;28;19911;-76
2023/11/30 04:14:49;;;;;;;;;;;-0.80;99.90;;;;;;5072881;28;19904;-76
2023/11/30 04:17:14;;;;;;;;;;;-0.60;99.90;;;;;;5072872;28;20376;-76
2023/11/30 04:19:41;;;;;;;;;;;-0.50;99.90;;;;;;5072457;28;19954;-75
2023/11/30 04:22:07;;;;;;;;;;;-0.40;99.90;;;;;;5074482;28;20013;-75
2023/11/30 04:24:33;;;;;;;;;;;-0.40;99.90;;;;;;5073753;28;19970;-76
2023/11/30 04:26:58;;;;;;;;;;;-0.40;99.90;;;;;;5073911;28;19915;-75
2023/11/30 04:29:24;;;;;;;;;;;-0.40;99.90;;;;;;5071575;28;19942;-76
2023/11/30 04:31:49;;;;;;;;;;;-0.30;99.90;;;;;;5072013;28;19915;-75
2023/11/30 04:34:15;;;;;;;;;;;-0.50;99.90;;;;;;5073262;28;19911;-75
2023/11/30 04:36:40;;;;;;;;;;;-0.30;99.90;;;;;;5073076;28;20378;-75
2023/11/30 04:39:06;;;;;;;;;;;-0.40;99.90;;;;;;5073291;28;19948;-76
2023/11/30 04:41:31;;;;;;;;;;;-0.30;99.90;;;;;;5073227;28;19904;-76
2023/11/30 04:43:57;;;;;;;;;;;-0.40;99.90;;;;;;5073631;28;19927;-76
2023/11/30 04:46:22;;;;;;;;;;;-0.40;99.90;;;;;;5072172;28;20393;-75
2023/11/30 04:48:48;;;;;;;;;;;-0.40;99.90;;;;;;5073077;28;19913;-76
2023/11/30 04:51:13;;;;;;;;;;;-0.30;99.90;;;;;;5072801;28;19991;-75
2023/11/30 04:53:39;;;;;;;;;;;-0.20;99.90;;;;;;5070494;28;19905;-75
2023/11/30 04:56:05;;;;;;;;;;;-0.20;99.90;;;;;;5071174;28;19915;-76
2023/11/30 04:58:31;;;;;;;;;;;-0.30;99.90;;;;;;5071283;28;19909;-74
2023/11/30 05:00:56;;;;;;;;;;;-0.40;99.90;;;;;;5070889;28;20495;-76
2023/11/30 05:03:22;;;;;;;;;;;-0.20;99.90;;;;;;5071506;28;20007;-76
2023/11/30 05:05:47;;;;;;;;;;;-0.20;99.90;;;;;;5071329;28;20285;-75
2023/11/30 05:08:13;;;;;;;;;;;-0.10;99.90;;;;;;5071869;28;20380;-75
2023/11/30 05:10:38;;;;;;;;;;;-0.10;99.90;;;;;;5070783;28;19927;-75
2023/11/30 05:13:04;;;;;;;;;;;-0.10;99.90;;;;;;5070743;28;19983;-75
2023/11/30 05:15:29;;;;;;;;;;;-0.10;99.90;;;;;;5072226;28;20295;-75
2023/11/30 05:17:55;;;;;;;;;;;0.00;99.90;;;;;;5071001;28;20014;-77
2023/11/30 05:20:20;;;;;;;;;;;-0.10;99.90;;;;;;5071142;28;20357;-75
2023/11/30 05:22:46;;;;;;;;;;;-0.20;99.90;;;;;;5070667;28;19943;-75
2023/11/30 05:25:11;;;;;;;;;;;-0.10;99.90;;;;;;5072183;28;19983;-76
2023/11/30 05:27:37;;;;;;;;;;;-0.10;99.90;;;;;;5071555;28;20265;-76
2023/11/30 05:30:03;;;;;;;;;;;0.00;99.90;;;;;;5071585;28;19913;-76
2023/11/30 05:32:29;;;;;;;;;;;0.20;99.90;;;;;;5071847;28;19966;-76
2023/11/30 05:34:54;;;;;;;;;;;0.00;99.90;;;;;;5070156;28;20471;-75
2023/11/30 05:37:20;;;;;;;;;;;0.10;99.90;;;;;;5071868;28;20014;-75
2023/11/30 05:39:45;;;;;;;;;;;0.00;99.90;;;;;;5071750;28;19904;-75
2023/11/30 05:42:11;;;;;;;;;;;0.10;99.90;;;;;;5072916;28;20370;-76
2023/11/30 05:44:36;;;;;;;;;;;0.30;99.90;;;;;;5070152;28;20410;-76
2023/11/30 05:47:02;;;;;;;;;;;0.30;99.90;;;;;;5073079;28;20567;-74
2023/11/30 05:49:28;;;;;;;;;;;0.40;99.90;;;;;;5070860;28;19916;-74
2023/11/30 05:51:53;;;;;;;;;;;0.40;99.90;;;;;;5068397;28;19908;-74
2023/11/30 05:54:19;;;;;;;;;;;0.30;99.90;;;;;;5068373;28;19908;-75
2023/11/30 05:56:45;;;;;;;;;;;0.50;99.90;;;;;;5067944;28;20518;-74
2023/11/30 05:59:12;;;;;;;;;;;0.60;99.90;;;;;;5069861;28;20430;-74
2023/11/30 06:01:37;;;;;;;;;;;0.50;99.90;;;;;;5068152;28;19912;-73
2023/11/30 06:04:03;;;;;;;;;;;0.60;99.90;;;;;;5068351;28;19954;-73
2023/11/30 06:06:29;;;;;;;;;;;0.60;99.90;;;;;;5068128;28;19904;-73
2023/11/30 06:08:54;;;;;;;;;;;0.40;99.90;;;;;;5069176;28;19920;-74
2023/11/30 06:11:20;;;;;;;;;;;0.30;99.90;;;;;;5069710;28;19904;-72
2023/11/30 06:13:46;;;;;;;;;;;0.40;99.90;;;;;;5067886;28;20340;-74
2023/11/30 06:16:11;;;;;;;;;;;0.40;99.90;;;;;;5067670;28;19911;-73
2023/11/30 06:18:37;;;;;;;;;;;0.50;99.90;;;;;;5068037;28;19913;-73
2023/11/30 06:21:02;;;;;;;;;;;0.60;99.90;;;;;;5067920;28;19905;-74
2023/11/30 06:23:28;;;;;;;;;;;0.70;99.90;;;;;;5068141;28;19908;-74
2023/11/30 06:25:55;;;;;;;;;;;0.50;99.90;;;;;;5068020;28;19908;-74
2023/11/30 06:28:21;;;;;;;;;;;0.60;99.90;;;;;;5069735;28;19978;-75
2023/11/30 06:30:47;;;;;;;;;;;0.60;99.90;;;;;;5069268;28;20681;-75
2023/11/30 06:33:12;;;;;;;;;;;0.70;99.90;;;;;;5069272;28;19912;-74
2023/11/30 06:35:38;;;;;;;;;;;0.70;99.90;;;;;;5069929;28;20003;-74
2023/11/30 06:38:03;;;;;;;;;;;0.60;99.90;;;;;;5070037;28;20348;-74
2023/11/30 06:40:29;;;;;;;;;;;0.60;99.90;;;;;;5067949;28;19911;-74
2023/11/30 06:42:54;;;;;;;;;;;0.60;99.90;;;;;;5068537;28;19920;-74
2023/11/30 06:45:20;;;;;;;;;;;0.40;99.90;;;;;;5067807;28;19911;-74
2023/11/30 06:47:46;;;;;;;;;;;0.50;99.90;;;;;;5067452;28;20369;-74
2023/11/30 06:50:12;;;;;;;;;;;0.60;99.90;;;;;;5068768;28;19913;-75
2023/11/30 06:52:37;;;;;;;;;;;0.80;99.90;;;;;;5067425;28;19912;-72
2023/11/30 06:55:03;;;;;;;;;;;0.80;99.90;;;;;;5067394;28;20289;-73
2023/11/30 06:57:29;;;;;;;;;;;0.80;99.90;;;;;;5067633;28;19962;-74
2023/11/30 06:59:54;;;;;;;;;;;0.80;99.90;;;;;;5069043;28;20575;-74
2023/11/30 07:02:21;;;;;;;;;;;0.90;99.90;;;;;;5067691;28;20365;-74
2023/11/30 07:04:47;;;;;;;;;;;0.80;99.90;;;;;;5068945;28;19912;-74
2023/11/30 07:07:12;;;;;;;;;;;0.70;99.90;;;;;;5068651;28;19947;-74
2023/11/30 07:09:38;;;;;;;;;;;0.70;99.90;;;;;;5068663;28;19917;-75
2023/11/30 07:12:03;;;;;;;;;;;0.90;99.90;;;;;;5068790;28;19909;-74
2023/11/30 07:14:29;;;;;;;;;;;0.90;99.90;;;;;;5068833;28;19908;-74
2023/11/30 07:16:54;;;;;;;;;;;0.90;99.90;;;;;;5068566;28;19908;-74
2023/11/30 07:19:20;;;;;;;;;;;0.80;99.90;;;;;;5069271;28;19908;-75
2023/11/30 07:21:48;;;;;;;;;;;0.90;99.90;;;;;;5068703;28;20321;-74
2023/11/30 07:24:14;;;;;;;;;;;1.00;99.90;;;;;;5068729;28;19995;-73
2023/11/30 07:26:39;;;;;;;;;;;0.90;99.90;;;;;;5067944;28;19995;-74
2023/11/30 07:29:05;;;;;;;;;;;0.80;99.90;;;;;;5066839;28;20372;-74
2023/11/30 07:31:30;;;;;;;;;;;0.90;99.90;;;;;;5067354;28;20451;-75
2023/11/30 07:33:56;;;;;;;;;;;1.00;99.90;;;;;;5067272;28;19934;-74
2023/11/30 07:36:21;;;;;;;;;;;0.80;99.90;;;;;;5068204;28;19912;-73
2023/11/30 07:38:48;;;;;;;;;;;0.80;99.90;;;;;;5067383;28;19975;-74
2023/11/30 07:41:14;;;;;;;;;;;0.80;99.90;;;;;;5067962;28;20373;-74
2023/11/30 07:43:40;;;;;;;;;;;1.00;99.90;;;;;;5067959;28;19916;-73
2023/11/30 07:46:05;;;;;;;;;;;0.90;99.90;;;;;;5068494;28;19908;-73
2023/11/30 07:48:32;;;;;;;;;;;0.60;99.90;;;;;;5067092;28;20015;-74
2023/11/30 07:50:58;;;;;;;;;;;0.80;99.90;;;;;;5067083;28;19918;-74
2023/11/30 07:53:23;;;;;;;;;;;0.80;99.90;;;;;;5068292;28;19908;-74
2023/11/30 07:55:54;;;;;;;;;;;0.80;99.90;;;;;;5067177;28;19915;-74
2023/11/30 07:58:21;;;;;;;;;;;0.80;99.90;;;;;;5068769;28;19908;-74
2023/11/30 08:00:47;;;;;;;;;;;0.90;99.90;;;;;;5070721;28;19911;-73
2023/11/30 08:03:12;;;;;;;;;;;0.90;99.90;;;;;;5071773;28;20296;-74
2023/11/30 08:05:38;;;;;;;;;;;0.90;99.90;;;;;;5071884;28;19916;-74
2023/11/30 08:08:03;;;;;;;;;;;1.00;99.90;;;;;;5070390;28;19911;-75
2023/11/30 08:10:30;;;;;;;;;;;1.00;99.90;;;;;;5070383;28;19916;-73
2023/11/30 08:12:56;;;;;;;;;;;1.10;99.90;;;;;;5071669;28;19905;-73
2023/11/30 08:15:22;;;;;;;;;;;0.90;99.90;;;;;;5071888;28;19915;-74
2023/11/30 08:17:47;;;;;;;;;;;0.90;99.90;;;;;;5070281;28;20280;-74
2023/11/30 08:20:13;;;;;;;;;;;0.90;99.90;;;;;;5071694;28;19908;-73
2023/11/30 08:22:42;;;;;;;;;;;0.90;99.90;;;;;;5070175;28;19908;-73
2023/11/30 08:25:08;;;;;;;;;;;1.00;99.90;;;;;;5070032;28;19920;-74
2023/11/30 08:27:33;;;;;;;;;;;1.10;99.90;;;;;;5071502;28;19909;-73
2023/11/30 08:29:59;;;;;;;;;;;1.10;99.90;;;;;;5070056;28;19920;-73
2023/11/30 08:32:25;;;;;;;;;;;1.00;99.90;;;;;;5071576;28;19916;-74
2023/11/30 08:34:51;;;;;;;;;;;1.00;99.90;;;;;;5071522;28;19940;-73
2023/11/30 08:37:16;;;;;;;;;;;1.10;99.90;;;;;;5071354;28;19999;-73
2023/11/30 08:39:42;;;;;;;;;;;1.00;99.90;;;;;;5071353;28;20015;-74
2023/11/30 08:42:08;;;;;;;;;;;0.80;99.90;;;;;;5070001;28;19913;-74
2023/11/30 08:44:35;;;;;;;;;;;0.60;99.90;;;;;;5072295;28;20408;-75
2023/11/30 08:47:01;;;;;;;;;;;0.60;99.90;;;;;;5071394;28;19908;-74
2023/11/30 08:49:26;;;;;;;;;;;0.90;99.90;;;;;;5069856;28;20439;-74
2023/11/30 08:51:53;;;;;;;;;;;0.70;99.90;;;;;;5069646;28;19934;-73
2023/11/30 08:54:21;;;;;;;;;;;0.60;99.90;;;;;;5070454;28;19947;-73
2023/11/30 08:56:47;;;;;;;;;;;0.50;99.90;;;;;;5072078;28;19915;-74
2023/11/30 08:59:12;;;;;;;;;;;0.70;99.90;;;;;;5070005;28;19915;-74
2023/11/30 09:01:38;;;;;;;;;;;0.80;99.90;;;;;;5070609;28;19908;-73
2023/11/30 09:04:04;;;;;;;;;;;0.80;99.90;;;;;;5072560;28;20353;-74
2023/11/30 09:06:30;;;;;;;;;;;0.60;99.90;;;;;;5068900;28;19905;-73
2023/11/30 09:08:56;;;;;;;;;;;0.70;99.90;;;;;;5068958;28;20441;-73
2023/11/30 09:11:22;;;;;;;;;;;0.80;99.90;;;;;;5069966;28;19956;-75
2023/11/30 09:13:47;;;;;;;;;;;0.80;99.90;;;;;;5070546;28;20445;-74
2023/11/30 09:16:13;;;;;;;;;;;0.80;99.90;;;;;;5069468;28;19908;-74
2023/11/30 09:18:38;;;;;;;;;;;0.80;99.90;;;;;;5070515;28;19905;-74
2023/11/30 09:21:04;;;;;;;;;;;0.80;99.90;;;;;;5068978;28;19952;-74
2023/11/30 09:23:29;;;;;;;;;;;0.70;99.90;;;;;;5069079;28;19915;-74
2023/11/30 09:25:55;;;;;;;;;;;0.40;99.90;;;;;;5070296;28;20323;-74
2023/11/30 09:28:21;;;;;;;;;;;0.40;99.90;;;;;;5070047;28;19908;-74
2023/11/30 09:30:46;;;;;;;;;;;0.70;99.90;;;;;;5068813;28;20305;-73
2023/11/30 09:33:13;;;;;;;;;;;0.90;99.90;;;;;;5068626;28;19908;-73
2023/11/30 09:35:39;;;;;;;;;;;0.90;99.90;;;;;;5070191;28;20442;-74
2023/11/30 09:38:04;;;;;;;;;;;0.80;99.90;;;;;;5068844;28;19955;-73
2023/11/30 09:40:30;;;;;;;;;;;0.60;99.90;;;;;;5070058;28;19983;-74
2023/11/30 09:42:56;;;;;;;;;;;0.50;99.90;;;;;;5068346;28;19953;-74
2023/11/30 09:45:23;;;;;;;;;;;0.70;99.90;;;;;;5069953;28;19904;-73
2023/11/30 09:47:48;;;;;;;;;;;0.80;99.90;;;;;;5068717;28;19908;-73
2023/11/30 09:50:14;;;;;;;;;;;0.70;99.90;;;;;;5069683;28;19923;-73
2023/11/30 09:52:40;;;;;;;;;;;0.60;99.90;;;;;;5069594;28;19916;-74
2023/11/30 09:55:08;;;;;;;;;;;0.50;99.90;;;;;;5069726;28;19913;-72
2023/11/30 09:57:34;;;;;;;;;;;0.50;99.90;;;;;;5068367;28;20365;-74
2023/11/30 10:00:00;;;;;;;;;;;0.70;99.90;;;;;;5068070;28;19915;-72
2023/11/30 10:02:27;;;;;;;;;;;0.80;99.90;;;;;;5069588;28;20381;-73
2023/11/30 10:04:53;;;;;;;;;;;0.50;99.90;;;;;;5069553;28;20248;-73
2023/11/30 10:07:20;;;;;;;;;;;0.30;99.90;;;;;;5068182;28;20281;-73
2023/11/30 10:09:46;;;;;;;;;;;0.60;99.90;;;;;;5068147;28;20357;-74
2023/11/30 10:12:11;;;;;;;;;;;0.40;99.90;;;;;;5067826;28;20435;-73
2023/11/30 10:14:37;;;;;;;;;;;0.70;99.90;;;;;;5068987;28;19962;-74
2023/11/30 10:17:03;;;;;;;;;;;0.70;99.90;;;;;;5067937;28;20416;-74
2023/11/30 10:19:30;;;;;;;;;;;0.80;99.90;;;;;;5068848;28;19939;-73
2023/11/30 10:21:56;;;;;;;;;;;0.70;99.90;;;;;;5067550;28;19939;-73
2023/11/30 10:24:23;;;;;;;;;;;0.60;99.90;;;;;;5068094;28;19961;-74
2023/11/30 10:26:52;;;;;;;;;;;0.60;99.90;;;;;;5069184;28;20008;-73
2023/11/30 10:29:23;;;;;;;;;;;0.70;99.90;;;;;;5067782;28;19947;-74
2023/11/30 10:31:51;;;;;;;;;;;0.60;99.90;;;;;;5069182;28;19942;-73
2023/11/30 10:34:21;;;;;;;;;;;0.30;99.90;;;;;;5069079;28;19905;-74
2023/11/30 10:36:46;;;;;;;;;;;0.50;99.90;;;;;;5069189;28;20373;-74
2023/11/30 10:39:22;;;;;;;;;;;0.50;99.90;;;;;;5068089;28;19909;-74
2023/11/30 10:41:55;;;;;;;;;;;0.60;99.90;;;;;;5067905;28;19918;-73
2023/11/30 10:44:29;;;;;;;;;;;0.50;99.90;;;;;;5068705;28;19943;-73
2023/11/30 10:46:56;;;;;;;;;;;0.60;99.90;;;;;;5068927;28;19908;-74
2023/11/30 10:49:23;;;;;;;;;;;0.50;99.90;;;;;;5069060;28;19916;-74
2023/11/30 10:51:50;;;;;;;;;;;0.50;99.90;;;;;;5067520;28;19908;-74
2023/11/30 10:54:15;;;;;;;;;;;0.50;99.90;;;;;;5067774;28;19908;-72
2023/11/30 10:56:41;;;;;;;;;;;0.60;99.90;;;;;;5069679;28;19912;-74
2023/11/30 10:59:13;;;;;;;;;;;0.50;99.90;;;;;;5067579;28;19952;-74
2023/11/30 11:01:39;;;;;;;;;;;0.60;99.90;;;;;;5068974;28;20404;-73
2023/11/30 11:04:08;;;;;;;;;;;0.60;99.90;;;;;;5069017;28;20027;-74
2023/11/30 11:06:34;;;;;;;;;;;0.70;99.90;;;;;;5067346;28;19908;-71
2023/11/30 11:09:00;;;;;;;;;;;0.70;99.90;;;;;;5068680;28;19991;-74
2023/11/30 11:11:29;;;;;;;;;;;0.60;99.90;;;;;;5068847;28;19923;-75
2023/11/30 11:13:55;;;;;;;;;;;0.50;99.90;;;;;;5067482;28;20666;-74
2023/11/30 11:16:31;;;;;;;;;;;0.70;99.90;;;;;;5068909;28;19999;-74
2023/11/30 11:19:02;;;;;;;;;;;0.60;99.90;;;;;;5068678;28;19944;-74
2023/11/30 11:21:29;;;;;;;;;;;0.50;99.90;;;;;;5068624;28;20709;-74
2023/11/30 11:24:00;;;;;;;;;;;0.60;99.90;;;;;;5068888;28;19908;-74
2023/11/30 11:26:25;;;;;;;;;;;0.60;99.90;;;;;;5068714;28;19913;-73
2023/11/30 11:28:52;;;;;;;;;;;0.70;99.90;;;;;;5068480;28;19908;-74
2023/11/30 11:31:18;;;;;;;;;;;0.60;99.90;;;;;;5068411;28;20384;-74
2023/11/30 11:33:43;;;;;;;;;;;0.60;99.90;;;;;;5068222;28;19977;-74
2023/11/30 11:36:09;;;;;;;;;;;0.50;99.90;;;;;;5070580;28;20360;-73
2023/11/30 11:38:35;;;;;;;;;;;0.60;99.90;;;;;;5071258;28;19915;-73
2023/11/30 11:41:01;;;;;;;;;;;0.60;99.90;;;;;;5070961;28;19932;-73
2023/11/30 11:43:26;;;;;;;;;;;0.60;99.90;;;;;;5071139;28;19920;-74
2023/11/30 11:45:52;;;;;;;;;;;0.60;99.90;;;;;;5070988;28;19916;-72
2023/11/30 11:48:17;;;;;;;;;;;0.70;99.90;;;;;;5072063;28;19912;-73
2023/11/30 11:50:43;;;;;;;;;;;0.70;99.90;;;;;;5071812;28;19939;-73
2023/11/30 11:53:08;;;;;;;;;;;0.70;99.90;;;;;;5071677;28;19930;-73
2023/11/30 11:55:34;;;;;;;;;;;0.50;99.90;;;;;;5071894;28;19950;-74
2023/11/30 11:57:59;;;;;;;;;;;0.20;99.90;;;;;;5072021;28;19904;-73
2023/11/30 12:00:25;;;;;;;;;;;0.30;99.90;;;;;;5071880;28;20400;-73
2023/11/30 12:02:52;;;;;;;;;;;0.50;99.90;;;;;;5070421;28;19911;-73
2023/11/30 12:05:24;;;;;;;;;;;0.60;99.90;;;;;;5071369;28;19915;-72
2023/11/30 12:07:57;;;;;;;;;;;0.40;99.90;;;;;;5070598;28;19908;-73
2023/11/30 12:10:27;;;;;;;;;;;0.40;99.90;;;;;;5071556;28;19916;-72
2023/11/30 12:12:53;;;;;;;;;;;0.50;99.90;;;;;;5071809;28;19920;-74
2023/11/30 12:15:18;;;;;;;;;;;0.40;99.90;;;;;;5070274;28;19909;-74
2023/11/30 12:17:44;;;;;;;;;;;0.50;99.90;;;;;;5071272;28;19908;-74
2023/11/30 12:20:10;;;;;;;;;;;0.40;99.90;;;;;;5071468;28;19920;-73
2023/11/30 12:22:35;;;;;;;;;;;0.50;99.90;;;;;;5071608;28;20300;-73
2023/11/30 12:25:01;;;;;;;;;;;0.60;99.90;;;;;;5071397;28;19943;-74
2023/11/30 12:27:26;;;;;;;;;;;0.70;99.90;;;;;;5070227;28;19915;-74
2023/11/30 12:29:52;;;;;;;;;;;0.60;99.90;;;;;;5071485;28;20015;-73
2023/11/30 12:32:17;;;;;;;;;;;0.50;99.90;;;;;;5071179;28;19916;-73
2023/11/30 12:34:43;;;;;;;;;;;0.60;99.90;;;;;;5071323;28;19918;-73
2023/11/30 12:37:08;;;;;;;;;;;0.60;99.90;;;;;;5069558;28;19961;-72
2023/11/30 12:39:34;;;;;;;;;;;0.60;99.90;;;;;;5070040;28;20377;-73
2023/11/30 12:41:59;;;;;;;;;;;0.60;99.90;;;;;;5071116;28;20420;-74
2023/11/30 12:44:25;;;;;;;;;;;0.60;99.90;;;;;;5070378;28;19921;-75
2023/11/30 12:46:50;;;;;;;;;;;0.30;99.90;;;;;;5069872;28;19908;-73
2023/11/30 12:49:16;;;;;;;;;;;0.40;99.90;;;;;;5069674;28;19939;-74
2023/11/30 12:51:41;;;;;;;;;;;0.40;99.90;;;;;;5069637;28;20654;-74
2023/11/30 12:54:07;;;;;;;;;;;0.50;99.90;;;;;;5069693;28;20392;-73
2023/11/30 12:56:33;;;;;;;;;;;0.60;99.90;;;;;;5070686;28;19908;-73
2023/11/30 12:58:58;;;;;;;;;;;0.70;99.90;;;;;;5069405;28;19961;-73
2023/11/30 13:01:25;;;;;;;;;;;0.70;99.90;;;;;;5070931;28;19915;-73
2023/11/30 13:03:50;;;;;;;;;;;0.60;99.90;;;;;;5070295;28;19915;-74
2023/11/30 13:06:16;;;;;;;;;;;0.60;99.90;;;;;;5071059;28;19904;-72
2023/11/30 13:08:42;;;;;;;;;;;0.40;99.90;;;;;;5069400;28;20334;-74
2023/11/30 13:11:07;;;;;;;;;;;0.20;99.90;;;;;;5069292;28;20007;-73
2023/11/30 13:13:33;;;;;;;;;;;0.30;99.90;;;;;;5070685;28;20007;-73
2023/11/30 13:16:01;;;;;;;;;;;0.40;99.90;;;;;;5070625;28;20007;-73
2023/11/30 13:18:27;;;;;;;;;;;0.70;99.90;;;;;;5070480;28;19914;-72
2023/11/30 13:20:53;;;;;;;;;;;0.70;99.90;;;;;;5070164;28;19908;-73
2023/11/30 13:23:19;;;;;;;;;;;0.60;99.90;;;;;;5070448;28;19908;-74
2023/11/30 13:25:45;;;;;;;;;;;0.50;99.90;;;;;;5070471;28;19923;-74
2023/11/30 13:28:11;;;;;;;;;;;0.60;99.90;;;;;;5068736;28;20318;-74
2023/11/30 13:30:37;;;;;;;;;;;0.60;99.90;;;;;;5069133;28;19970;-73
2023/11/30 13:33:04;;;;;;;;;;;0.50;99.90;;;;;;5070017;28;20246;-74
2023/11/30 13:35:30;;;;;;;;;;;0.40;99.90;;;;;;5068678;28;20467;-72
2023/11/30 13:37:58;;;;;;;;;;;0.70;99.90;;;;;;5064055;28;20014;-73
2023/11/30 13:40:23;;;;;;;;;;;0.50;99.90;;;;;;5069969;28;19956;-72
2023/11/30 13:42:49;;;;;;;;;;;0.50;99.90;;;;;;5069942;28;20380;-74
2023/11/30 13:45:15;;;;;;;;;;;0.60;99.90;;;;;;5069700;28;19912;-73
2023/11/30 13:47:41;;;;;;;;;;;0.40;99.90;;;;;;5070060;28;19939;-73
2023/11/30 13:50:07;;;;;;;;;;;0.60;99.90;;;;;;5069594;28;19928;-73
2023/11/30 13:52:33;;;;;;;;;;;0.80;99.90;;;;;;5068287;28;19904;-73
2023/11/30 13:54:59;;;;;;;;;;;0.70;99.90;;;;;;5069242;28;20008;-74
2023/11/30 13:57:24;;;;;;;;;;;0.70;99.90;;;;;;5067074;28;19983;-73
2023/11/30 13:59:50;;;;;;;;;;;0.70;99.90;;;;;;5069190;28;19908;-73
2023/11/30 14:02:15;;;;;;;;;;;0.70;99.90;;;;;;5068009;28;20331;-73
2023/11/30 14:04:41;;;;;;;;;;;0.80;99.90;;;;;;5069130;28;20026;-73
2023/11/30 14:07:06;;;;;;;;;;;0.60;99.90;;;;;;5068916;28;20631;-74
2023/11/30 14:09:32;;;;;;;;;;;0.50;99.90;;;;;;5069016;28;20308;-74
2023/11/30 14:11:57;;;;;;;;;;;0.60;99.90;;;;;;5069465;28;19942;-74
2023/11/30 14:14:23;;;;;;;;;;;0.70;99.90;;;;;;5069638;28;20361;-74
2023/11/30 14:16:49;;;;;;;;;;;0.60;99.90;;;;;;5068237;28;19905;-74
2023/11/30 14:19:16;;;;;;;;;;;0.50;99.90;;;;;;5069250;28;19914;-73